Time;durP1;ratioP1;P1;durP2;ratioP2;P2;SDS_P1;SDS_P2;PMS_P1;PMS_P2;Temp;Humidity;BMP_temperature;BMP_pressure;BME280_temperature;BME280_humidity;BME280_pressure;Samples;Min_cycle;Max_cycle;Signal;HPM_P1;HPM_P2
2024/01/14 00:00:41;;;;;;;0.80;0.80;;;-2.10;99.90;;;;;;5081029;28;20492;-79
2024/01/14 00:03:09;;;;;;;1.33;1.33;;;-2.20;99.90;;;;;;5080422;28;20471;-79
2024/01/14 00:05:36;;;;;;;1.43;1.33;;;-2.10;99.90;;;;;;5080233;28;20449;-79
2024/01/14 00:08:03;;;;;;;3.30;2.00;;;-2.20;99.90;;;;;;5079921;28;20492;-79
2024/01/14 00:10:29;;;;;;;1.93;1.83;;;-2.20;99.90;;;;;;5079979;28;20509;-79
2024/01/14 00:12:56;;;;;;;2.50;1.70;;;-2.10;99.90;;;;;;5079999;28;20441;-79
2024/01/14 00:15:23;;;;;;;15.13;2.43;;;-2.00;99.90;;;;;;5080027;28;20448;-79
2024/01/14 00:17:49;;;;;;;0.80;0.80;;;-2.00;99.90;;;;;;5079645;28;20447;-79
2024/01/14 00:20:18;;;;;;;1.73;1.63;;;-2.00;99.90;;;;;;5079082;28;20437;-79
2024/01/14 00:22:44;;;;;;;2.40;1.57;;;-2.00;99.90;;;;;;5093266;28;20956;-79
2024/01/14 00:25:12;;;;;;;0.50;0.50;;;-2.00;99.90;;;;;;5092826;28;20445;-79
2024/01/14 00:27:39;;;;;;;1.17;1.07;;;-1.90;99.90;;;;;;5081837;28;20452;-79
2024/01/14 00:30:07;;;;;;;3.23;2.53;;;-2.00;99.90;;;;;;5091702;28;20465;-79
2024/01/14 00:32:33;;;;;;;1.90;1.27;;;-2.00;99.90;;;;;;5098559;28;20942;-79
2024/01/14 00:35:00;;;;;;;0.90;0.73;;;-2.10;99.90;;;;;;5100109;28;20457;-79
2024/01/14 00:37:28;;;;;;;2.30;1.67;;;-2.00;99.90;;;;;;5094877;28;20453;-79
2024/01/14 00:39:55;;;;;;;0.80;0.80;;;-2.00;99.90;;;;;;5083627;28;20973;-79
2024/01/14 00:42:21;;;;;;;1.33;1.10;;;-2.00;99.90;;;;;;5081170;28;20420;-79
2024/01/14 00:44:48;;;;;;;1.53;0.87;;;-2.00;99.90;;;;;;5082838;28;20459;-79
2024/01/14 00:47:15;;;;;;;2.50;1.80;;;-2.00;99.90;;;;;;5085928;28;20942;-79
2024/01/14 00:49:41;;;;;;;1.07;0.50;;;-2.00;99.90;;;;;;5081951;28;20480;-79
2024/01/14 00:52:08;;;;;;;1.40;1.10;;;-2.10;99.90;;;;;;5082437;28;20453;-79
2024/01/14 00:54:36;;;;;;;3.00;2.57;;;-2.10;99.90;;;;;;5081406;28;20847;-79
2024/01/14 00:57:04;;;;;;;5.70;1.20;;;-2.20;99.90;;;;;;5081841;28;20622;-79
2024/01/14 00:59:30;;;;;;;2.10;1.00;;;-2.20;99.90;;;;;;5080993;28;20472;-79
2024/01/14 01:01:57;;;;;;;3.53;1.43;;;-2.20;99.90;;;;;;5080151;28;20477;-79
2024/01/14 01:04:24;;;;;;;3.10;2.83;;;-2.10;99.90;;;;;;5080339;28;20854;-79
2024/01/14 01:06:50;;;;;;;3.27;2.70;;;-2.10;99.90;;;;;;5084646;28;20476;-79
2024/01/14 01:09:17;;;;;;;0.87;0.87;;;-2.10;99.90;;;;;;5085929;28;20469;-80
2024/01/14 01:11:45;;;;;;;0.60;0.60;;;-2.20;99.90;;;;;;5081201;28;20491;-79
2024/01/14 01:14:14;;;;;;;4.90;1.90;;;-2.20;99.90;;;;;;5080411;28;20954;-79
2024/01/14 01:16:40;;;;;;;13.90;1.63;;;-2.20;99.90;;;;;;5080897;28;20451;-79
2024/01/14 01:19:07;;;;;;;1.43;1.33;;;-2.30;99.90;;;;;;5080645;28;20985;-79
2024/01/14 01:21:34;;;;;;;0.90;0.90;;;-2.30;99.90;;;;;;5079994;28;20463;-79
2024/01/14 01:24:00;;;;;;;1.70;1.60;;;-2.30;99.90;;;;;;5079547;28;20503;-79
2024/01/14 01:26:27;;;;;;;2.30;1.77;;;-2.30;99.90;;;;;;5080277;28;20456;-79
2024/01/14 01:28:55;;;;;;;10.90;3.43;;;-2.30;99.90;;;;;;5080242;28;20461;-79
2024/01/14 01:31:22;;;;;;;0.80;0.80;;;-2.40;99.90;;;;;;5078998;28;20850;-79
2024/01/14 01:33:48;;;;;;;1.87;1.83;;;-2.30;99.90;;;;;;5079090;28;20422;-79
2024/01/14 01:36:15;;;;;;;1.13;1.10;;;-2.30;99.90;;;;;;5079226;28;20432;-79
2024/01/14 01:38:42;;;;;;;0.93;0.83;;;-2.30;99.90;;;;;;5079269;28;20465;-79
2024/01/14 01:41:08;;;;;;;1.80;1.70;;;-2.30;99.90;;;;;;5079259;28;20843;-79
2024/01/14 01:43:35;;;;;;;3.70;2.10;;;-2.30;99.90;;;;;;5078873;28;20840;-79
2024/01/14 01:46:03;;;;;;;5.83;3.17;;;-2.30;99.90;;;;;;5078989;28;20448;-80
2024/01/14 01:48:30;;;;;;;1.23;1.13;;;-2.30;99.90;;;;;;5079243;28;20460;-79
2024/01/14 01:50:57;;;;;;;13.27;4.17;;;-2.30;99.90;;;;;;5079214;28;20481;-79
2024/01/14 01:53:25;;;;;;;6.50;2.87;;;-2.30;99.90;;;;;;5079158;28;20459;-79
2024/01/14 01:55:53;;;;;;;1.17;0.90;;;-2.30;99.90;;;;;;5079248;28;20480;-79
2024/01/14 01:58:19;;;;;;;1.00;1.00;;;-2.30;99.90;;;;;;5078983;28;20435;-79
2024/01/14 02:00:46;;;;;;;0.87;0.87;;;-2.30;99.90;;;;;;5078856;28;20467;-79
2024/01/14 02:03:14;;;;;;;7.07;2.30;;;-2.30;99.90;;;;;;5078963;28;20452;-79
2024/01/14 02:05:44;;;;;;;3.33;1.00;;;-2.30;99.90;;;;;;5079055;28;20444;-79
2024/01/14 02:08:11;;;;;;;3.30;1.80;;;-2.40;99.90;;;;;;5078220;28;20480;-79
2024/01/14 02:10:38;;;;;;;2.40;0.63;;;-2.40;99.90;;;;;;5078020;28;20488;-79
2024/01/14 02:13:05;;;;;;;2.53;1.97;;;-2.40;99.90;;;;;;5078303;28;20445;-79
2024/01/14 02:15:32;;;;;;;4.40;2.17;;;-2.40;99.90;;;;;;5077800;28;20813;-79
2024/01/14 02:17:59;;;;;;;3.90;1.67;;;-2.50;99.90;;;;;;5077403;28;20452;-79
2024/01/14 02:20:27;;;;;;;2.20;1.47;;;-2.40;99.90;;;;;;5077724;28;20839;-79
2024/01/14 02:22:56;;;;;;;3.53;1.77;;;-2.40;99.90;;;;;;5077736;28;20452;-79
2024/01/14 02:25:24;;;;;;;9.90;2.70;;;-2.40;99.90;;;;;;5077721;28;20448;-79
2024/01/14 02:27:51;;;;;;;2.53;1.93;;;-2.50;99.90;;;;;;5077602;28;20972;-79
2024/01/14 02:30:18;;;;;;;6.70;2.93;;;-2.50;99.90;;;;;;5077375;28;20487;-79
2024/01/14 02:32:48;;;;;;;2.70;2.50;;;-2.60;99.90;;;;;;5077607;28;20445;-79
2024/01/14 02:35:15;;;;;;;2.60;1.90;;;-2.60;99.90;;;;;;5077411;28;20502;-79
2024/01/14 02:37:43;;;;;;;0.97;0.97;;;-2.60;99.90;;;;;;5077176;28;20832;-79
2024/01/14 02:40:10;;;;;;;1.77;1.50;;;-2.60;99.90;;;;;;5077129;28;20511;-79
2024/01/14 02:42:39;;;;;;;5.17;2.67;;;-2.60;99.90;;;;;;5076800;28;20437;-79
2024/01/14 02:45:07;;;;;;;10.43;2.60;;;-2.60;99.90;;;;;;5077098;28;20452;-79
2024/01/14 02:47:33;;;;;;;3.77;2.53;;;-2.60;99.90;;;;;;5077478;28;20536;-79
2024/01/14 02:50:00;;;;;;;4.37;1.83;;;-2.60;99.90;;;;;;5077179;28;20432;-79
2024/01/14 02:52:27;;;;;;;1.60;1.23;;;-2.60;99.90;;;;;;5076919;28;20452;-79
2024/01/14 02:54:53;;;;;;;13.10;2.40;;;-2.60;99.90;;;;;;5077040;28;21004;-79
2024/01/14 02:57:20;;;;;;;9.10;1.40;;;-2.60;99.90;;;;;;5076764;28;20452;-79
2024/01/14 02:59:48;;;;;;;2.27;2.07;;;-2.50;99.90;;;;;;5076926;28;20473;-79
2024/01/14 03:02:15;;;;;;;3.60;0.70;;;-2.50;99.90;;;;;;5076569;28;20956;-79
2024/01/14 03:04:41;;;;;;;2.57;2.03;;;-2.60;99.90;;;;;;5075991;28;20956;-79
2024/01/14 03:07:08;;;;;;;0.40;0.40;;;-2.50;99.90;;;;;;5076802;28;20473;-79
2024/01/14 03:09:35;;;;;;;7.43;2.10;;;-2.50;99.90;;;;;;5075942;28;20461;-79
2024/01/14 03:12:02;;;;;;;0.97;0.90;;;-2.50;99.90;;;;;;5076553;28;20852;-79
2024/01/14 03:14:28;;;;;;;4.60;3.47;;;-2.50;99.90;;;;;;5077338;28;20437;-79
2024/01/14 03:16:59;;;;;;;1.17;1.10;;;-2.50;99.90;;;;;;5083047;28;20448;-80
2024/01/14 03:19:26;;;;;;;1.37;1.27;;;-2.70;99.90;;;;;;5083307;28;20491;-79
2024/01/14 03:21:54;;;;;;;2.00;1.63;;;-2.80;99.90;;;;;;5082051;28;20441;-79
2024/01/14 03:24:20;;;;;;;1.93;1.87;;;-2.80;99.90;;;;;;5078867;28;20451;-79
2024/01/14 03:26:47;;;;;;;5.50;2.23;;;-2.70;99.90;;;;;;5079931;28;20445;-79
2024/01/14 03:29:13;;;;;;;2.83;1.57;;;-2.70;99.90;;;;;;5079646;28;20244;-79
2024/01/14 03:31:40;;;;;;;1.57;1.47;;;-2.70;99.90;;;;;;5079803;28;20485;-79
2024/01/14 03:34:08;;;;;;;7.00;3.33;;;-2.70;99.90;;;;;;5080470;28;20418;-79
2024/01/14 03:36:35;;;;;;;0.77;0.63;;;-2.60;99.90;;;;;;5082797;28;20448;-79
2024/01/14 03:39:03;;;;;;;0.97;0.97;;;-2.60;99.90;;;;;;5082151;28;20469;-79
2024/01/14 03:41:30;;;;;;;2.27;1.13;;;-2.60;99.90;;;;;;5081293;28;20437;-79
2024/01/14 03:43:57;;;;;;;1.30;1.23;;;-2.60;99.90;;;;;;5081337;28;20445;-79
2024/01/14 03:46:24;;;;;;;1.27;1.23;;;-2.80;99.90;;;;;;5080145;28;20472;-79
2024/01/14 03:48:50;;;;;;;1.17;0.67;;;-2.80;99.90;;;;;;5080572;28;20825;-79
2024/01/14 03:51:18;;;;;;;5.67;2.33;;;-2.70;99.90;;;;;;5079774;28;20476;-79
2024/01/14 03:53:45;;;;;;;1.10;1.00;;;-2.70;99.90;;;;;;5079734;28;20412;-79
2024/01/14 03:56:12;;;;;;;2.47;0.60;;;-2.60;99.90;;;;;;5081224;28;20424;-79
2024/01/14 03:58:39;;;;;;;13.57;3.53;;;-2.60;99.90;;;;;;5083154;28;20435;-79
2024/01/14 04:01:06;;;;;;;3.47;1.83;;;-2.50;99.90;;;;;;5082720;28;20442;-79
2024/01/14 04:03:33;;;;;;;6.90;2.30;;;-2.60;99.90;;;;;;5082134;28;20443;-79
2024/01/14 04:06:04;;;;;;;1.00;0.77;;;-2.50;99.90;;;;;;5082050;28;20934;-79
2024/01/14 04:08:32;;;;;;;16.00;3.90;;;-2.50;99.90;;;;;;5081997;28;20484;-79
2024/01/14 04:10:59;;;;;;;1.30;1.20;;;-2.50;99.90;;;;;;5082175;28;20897;-79
2024/01/14 04:13:26;;;;;;;2.63;0.90;;;-2.50;99.90;;;;;;5081648;28;20498;-79
2024/01/14 04:15:52;;;;;;;1.83;1.07;;;-2.50;99.90;;;;;;5082379;28;20445;-79
2024/01/14 04:18:19;;;;;;;2.20;1.87;;;-2.50;99.90;;;;;;5082642;28;20476;-79
2024/01/14 04:20:45;;;;;;;7.10;1.77;;;-2.50;99.90;;;;;;5081850;28;20444;-79
2024/01/14 04:23:12;;;;;;;1.83;0.70;;;-2.50;99.90;;;;;;5081948;28;20452;-79
2024/01/14 04:25:40;;;;;;;7.53;3.17;;;-2.50;99.90;;;;;;5081352;28;20473;-79
2024/01/14 04:28:07;;;;;;;3.57;3.37;;;-2.50;99.90;;;;;;5081291;28;20443;-79
2024/01/14 04:30:34;;;;;;;1.37;0.73;;;-2.50;99.90;;;;;;5081373;28;20452;-79
2024/01/14 04:33:00;;;;;;;5.30;1.87;;;-2.50;99.90;;;;;;5080921;28;20438;-79
2024/01/14 04:35:27;;;;;;;6.80;2.87;;;-2.50;99.90;;;;;;5085072;28;20423;-79
2024/01/14 04:37:54;;;;;;;0.93;0.83;;;-2.60;99.90;;;;;;5081264;28;20440;-79
2024/01/14 04:40:20;;;;;;;3.17;1.07;;;-2.60;99.90;;;;;;5080522;28;20782;-79
2024/01/14 04:42:48;;;;;;;0.60;0.60;;;-2.60;99.90;;;;;;5080979;28;20809;-79
2024/01/14 04:45:15;;;;;;;5.40;1.47;;;-2.60;99.90;;;;;;5081012;28;20448;-79
2024/01/14 04:47:42;;;;;;;1.73;0.90;;;-2.60;99.90;;;;;;5080725;28;20448;-79
2024/01/14 04:50:10;;;;;;;2.30;2.00;;;-2.60;99.90;;;;;;5081258;28;20448;-79
2024/01/14 04:52:36;;;;;;;6.70;1.63;;;-2.60;99.90;;;;;;5080704;28;20481;-79
2024/01/14 04:55:04;;;;;;;0.70;0.70;;;-2.50;99.90;;;;;;5080841;28;20507;-79
2024/01/14 04:57:31;;;;;;;15.60;2.60;;;-2.60;99.90;;;;;;5080593;28;20424;-79
2024/01/14 04:59:59;;;;;;;0.60;0.60;;;-2.60;99.90;;;;;;5079978;28;20473;-79
2024/01/14 05:02:26;;;;;;;4.70;2.73;;;-2.70;99.90;;;;;;5080039;28;20445;-79
2024/01/14 05:04:53;;;;;;;3.40;2.30;;;-2.70;99.90;;;;;;5080377;28;20480;-79
2024/01/14 05:07:20;;;;;;;2.50;1.60;;;-2.70;99.90;;;;;;5079120;28;20480;-79
2024/01/14 05:09:46;;;;;;;0.80;0.80;;;-2.70;99.90;;;;;;5080336;28;20461;-79
2024/01/14 05:12:13;;;;;;;1.67;1.40;;;-2.80;99.90;;;;;;5079867;28;20477;-79
2024/01/14 05:14:40;;;;;;;0.80;0.50;;;-2.80;99.90;;;;;;5080560;28;20491;-79
2024/01/14 05:17:08;;;;;;;4.17;2.27;;;-2.70;99.90;;;;;;5079339;28;20441;-79
2024/01/14 05:19:34;;;;;;;2.10;1.57;;;-2.80;99.90;;;;;;5079325;28;20468;-79
2024/01/14 05:22:01;;;;;;;7.50;1.50;;;-2.90;99.90;;;;;;5080483;28;20416;-80
2024/01/14 05:24:28;;;;;;;3.70;2.67;;;-2.90;99.90;;;;;;5085499;28;20433;-79
2024/01/14 05:26:54;;;;;;;4.13;2.83;;;-3.00;99.90;;;;;;5084075;28;20503;-79
2024/01/14 05:29:21;;;;;;;1.83;1.73;;;-3.10;99.90;;;;;;5084163;28;20471;-79
2024/01/14 05:31:48;;;;;;;1.23;1.13;;;-3.00;99.90;;;;;;5084704;28;20852;-79
2024/01/14 05:34:16;;;;;;;1.90;1.73;;;-3.10;99.90;;;;;;5085182;28;20448;-79
2024/01/14 05:36:43;;;;;;;0.63;0.63;;;-3.20;99.90;;;;;;5082786;28;20441;-79
2024/01/14 05:39:10;;;;;;;2.93;1.63;;;-3.30;99.90;;;;;;5081490;28;20469;-79
2024/01/14 05:41:37;;;;;;;2.10;1.90;;;-3.20;99.90;;;;;;5082784;28;20437;-79
2024/01/14 05:44:04;;;;;;;1.87;1.77;;;-3.20;99.90;;;;;;5081189;28;20957;-79
2024/01/14 05:46:31;;;;;;;1.80;1.70;;;-3.20;99.90;;;;;;5081258;28;20416;-79
2024/01/14 05:48:57;;;;;;;2.70;2.30;;;-3.10;99.90;;;;;;5080368;28;20469;-79
2024/01/14 05:51:25;;;;;;;4.40;1.10;;;-3.10;99.90;;;;;;5080069;28;20895;-79
2024/01/14 05:53:52;;;;;;;1.10;1.10;;;-3.20;99.90;;;;;;5080564;28;20448;-79
2024/01/14 05:56:26;;;;;;;1.57;1.47;;;-3.10;99.90;;;;;;5080048;28;20448;-79
2024/01/14 05:58:53;;;;;;;3.97;1.03;;;-3.10;99.90;;;;;;5080339;28;20451;-79
2024/01/14 06:01:19;;;;;;;0.60;0.60;;;-3.00;99.90;;;;;;5080405;28;20449;-79
2024/01/14 06:03:46;;;;;;;5.40;0.60;;;-3.00;99.90;;;;;;5079564;28;20435;-79
2024/01/14 06:06:13;;;;;;;1.30;1.30;;;-3.10;99.90;;;;;;5079707;28;20427;-79
2024/01/14 06:08:41;;;;;;;3.03;1.03;;;-3.10;99.90;;;;;;5080516;28;20580;-79
2024/01/14 06:11:08;;;;;;;3.97;0.93;;;-3.10;99.90;;;;;;5079200;28;20506;-79
2024/01/14 06:13:35;;;;;;;3.57;1.03;;;-3.10;99.90;;;;;;5079510;28;20452;-79
2024/01/14 06:16:02;;;;;;;0.43;0.43;;;-3.10;99.90;;;;;;5079137;28;20408;-79
2024/01/14 06:18:29;;;;;;;2.87;2.70;;;-3.10;99.90;;;;;;5079358;28;20534;-79
2024/01/14 06:20:59;;;;;;;2.10;1.80;;;-3.20;99.90;;;;;;5078355;28;20422;-79
2024/01/14 06:23:26;;;;;;;0.30;0.30;;;-3.20;99.90;;;;;;5078716;28;20490;-79
2024/01/14 06:25:54;;;;;;;1.03;1.03;;;-3.20;99.90;;;;;;5078527;28;20419;-79
2024/01/14 06:28:21;;;;;;;1.90;1.77;;;-3.10;99.90;;;;;;5078909;28;20468;-79
2024/01/14 06:30:48;;;;;;;1.47;1.37;;;-3.00;99.90;;;;;;5079023;28;20440;-79
2024/01/14 06:33:15;;;;;;;1.93;1.83;;;-3.10;99.90;;;;;;5078401;28;20481;-79
2024/01/14 06:35:41;;;;;;;0.30;0.30;;;-3.10;99.90;;;;;;5078446;28;20419;-79
2024/01/14 06:38:09;;;;;;;6.57;1.57;;;-3.10;99.90;;;;;;5083302;28;20461;-79
2024/01/14 06:40:36;;;;;;;1.67;1.57;;;-3.20;99.90;;;;;;5083383;28;20448;-79
2024/01/14 06:43:04;;;;;;;3.33;1.07;;;-3.20;99.90;;;;;;5081459;28;20437;-79
2024/01/14 06:45:31;;;;;;;6.33;1.20;;;-3.30;99.90;;;;;;5080821;28;20456;-79
2024/01/14 06:47:57;;;;;;;1.87;1.50;;;-3.20;99.90;;;;;;5079331;28;20452;-79
2024/01/14 06:50:24;;;;;;;1.10;1.10;;;-3.20;99.90;;;;;;5078879;28;20934;-79
2024/01/14 06:52:51;;;;;;;1.73;1.10;;;-3.10;99.90;;;;;;5078730;28;20469;-79
2024/01/14 06:55:17;;;;;;;1.67;1.63;;;-3.10;99.90;;;;;;5078115;28;20449;-79
2024/01/14 06:57:44;;;;;;;3.53;1.97;;;-3.20;99.90;;;;;;5077908;28;20444;-79
2024/01/14 07:00:14;;;;;;;1.20;1.17;;;-3.30;99.90;;;;;;5077619;28;20448;-79
2024/01/14 07:02:40;;;;;;;9.30;2.40;;;-3.40;99.90;;;;;;5077562;28;20448;-79
2024/01/14 07:05:10;;;;;;;0.70;0.70;;;-3.50;99.90;;;;;;5077312;28;20451;-79
2024/01/14 07:07:36;;;;;;;2.00;1.07;;;-3.50;99.90;;;;;;5076992;28;20985;-79
2024/01/14 07:10:04;;;;;;;0.53;0.50;;;-3.40;99.90;;;;;;5077062;28;20473;-79
2024/01/14 07:12:31;;;;;;;0.60;0.60;;;-3.30;99.90;;;;;;5077832;28;20491;-79
2024/01/14 07:14:58;;;;;;;3.80;1.53;;;-3.30;99.90;;;;;;5078053;28;20461;-79
2024/01/14 07:17:26;;;;;;;0.60;0.60;;;-3.30;99.90;;;;;;5077188;28;20420;-79
2024/01/14 07:19:52;;;;;;;21.50;2.30;;;-3.30;99.90;;;;;;5077196;28;20447;-79
2024/01/14 07:22:19;;;;;;;0.80;0.80;;;-3.20;99.90;;;;;;5077233;28;20448;-79
2024/01/14 07:24:46;;;;;;;0.60;0.60;;;-3.20;99.90;;;;;;5077162;28;20456;-79
2024/01/14 07:27:12;;;;;;;0.50;0.47;;;-3.30;99.90;;;;;;5077184;28;20415;-79
2024/01/14 07:29:39;;;;;;;0.80;0.80;;;-3.30;99.90;;;;;;5076609;28;20983;-79
2024/01/14 07:32:07;;;;;;;5.80;3.23;;;-3.20;99.90;;;;;;5080613;28;20819;-79
2024/01/14 07:34:35;;;;;;;1.07;1.07;;;-3.20;99.90;;;;;;5088076;28;20524;-79
2024/01/14 07:37:03;;;;;;;3.07;1.60;;;-3.20;99.90;;;;;;5087745;28;20940;-79
2024/01/14 07:39:29;;;;;;;4.53;1.23;;;-3.20;99.90;;;;;;5081753;28;21061;-80
2024/01/14 07:41:56;;;;;;;5.80;1.73;;;-3.10;99.90;;;;;;5085464;28;20443;-79
2024/01/14 07:44:23;;;;;;;2.00;1.23;;;-3.10;99.90;;;;;;5085388;28;20539;-79
2024/01/14 07:46:49;;;;;;;2.97;2.77;;;-3.10;99.90;;;;;;5085317;28;20445;-80
2024/01/14 07:49:16;;;;;;;1.37;1.27;;;-3.10;99.90;;;;;;5084723;28;20479;-79
2024/01/14 07:51:44;;;;;;;0.90;0.90;;;-3.30;99.90;;;;;;5084162;28;20448;-79
2024/01/14 07:54:12;;;;;;;1.90;1.27;;;-3.30;99.90;;;;;;5083918;28;20429;-79
2024/01/14 07:56:38;;;;;;;2.10;1.87;;;-3.20;99.90;;;;;;5083793;28;20824;-79
2024/01/14 07:59:05;;;;;;;2.00;1.83;;;-3.20;99.90;;;;;;5083693;28;20443;-79
2024/01/14 08:01:32;;;;;;;4.77;1.43;;;-3.20;99.90;;;;;;5083458;28;20441;-79
2024/01/14 08:03:58;;;;;;;1.90;1.80;;;-3.10;99.90;;;;;;5082628;28;20460;-79
2024/01/14 08:06:26;;;;;;;3.47;2.77;;;-3.10;99.90;;;;;;5083824;28;20441;-79
2024/01/14 08:08:55;;;;;;;0.73;0.73;;;-3.20;99.90;;;;;;5084038;28;20436;-79
2024/01/14 08:11:21;;;;;;;6.63;4.83;;;-3.10;99.90;;;;;;5083577;28;20447;-79
2024/01/14 08:13:48;;;;;;;3.80;2.70;;;-3.20;99.90;;;;;;5083150;28;20480;-79
2024/01/14 08:16:15;;;;;;;0.30;0.30;;;-3.00;99.90;;;;;;5082987;28;20423;-79
2024/01/14 08:18:42;;;;;;;3.00;2.80;;;-2.90;99.90;;;;;;5081841;28;20460;-79
2024/01/14 08:21:10;;;;;;;5.90;1.23;;;-3.00;99.90;;;;;;5082458;28;20904;-79
2024/01/14 08:23:37;;;;;;;1.63;1.27;;;-2.90;99.90;;;;;;5082412;28;20444;-79
2024/01/14 08:26:06;;;;;;;0.80;0.60;;;-3.00;99.90;;;;;;5082597;28;20444;-79
2024/01/14 08:28:36;;;;;;;3.07;0.60;;;-3.00;99.90;;;;;;5081418;28;21029;-79
2024/01/14 08:31:03;;;;;;;1.30;1.20;;;-3.10;99.90;;;;;;5082955;28;20444;-79
2024/01/14 08:33:30;;;;;;;1.93;1.10;;;-3.10;99.90;;;;;;5081405;28;20484;-79
2024/01/14 08:35:56;;;;;;;0.83;0.83;;;-3.10;99.90;;;;;;5080343;28;20419;-79
2024/01/14 08:38:24;;;;;;;0.57;0.57;;;-3.10;99.90;;;;;;5081181;28;20435;-79
2024/01/14 08:40:52;;;;;;;4.10;2.13;;;-3.00;99.90;;;;;;5080305;28;20484;-79
2024/01/14 08:43:20;;;;;;;2.00;2.00;;;-3.00;99.90;;;;;;5080873;28;20445;-79
2024/01/14 08:45:46;;;;;;;4.23;2.03;;;-3.10;99.90;;;;;;5081020;28;20419;-79
2024/01/14 08:48:13;;;;;;;3.37;2.00;;;-3.00;99.90;;;;;;5080413;28;20526;-79
2024/01/14 08:50:40;;;;;;;0.93;0.93;;;-2.90;99.90;;;;;;5081908;28;20506;-80
2024/01/14 08:53:07;;;;;;;1.13;1.03;;;-2.90;99.90;;;;;;5082703;28;20455;-79
2024/01/14 08:55:33;;;;;;;13.37;1.43;;;-2.90;99.90;;;;;;5081424;28;20445;-79
2024/01/14 08:58:00;;;;;;;0.70;0.70;;;-2.90;99.90;;;;;;5080971;28;20408;-79
2024/01/14 09:00:28;;;;;;;2.47;2.00;;;-2.90;99.90;;;;;;5080226;28;20469;-79
2024/01/14 09:02:55;;;;;;;0.87;0.87;;;-2.90;99.90;;;;;;5080705;28;20818;-79
2024/01/14 09:05:22;;;;;;;1.43;1.13;;;-2.80;99.90;;;;;;5079925;28;20881;-79
2024/01/14 09:07:49;;;;;;;0.93;0.93;;;-2.70;99.90;;;;;;5079674;28;20481;-79
2024/01/14 09:10:15;;;;;;;1.60;1.50;;;-2.50;99.90;;;;;;5080468;28;20855;-79
2024/01/14 09:12:42;;;;;;;3.67;3.30;;;-2.50;99.90;;;;;;5079285;28;20485;-79
2024/01/14 09:15:09;;;;;;;1.27;1.17;;;-2.40;99.90;;;;;;5079203;28;20449;-79
2024/01/14 09:17:37;;;;;;;5.27;2.60;;;-2.30;99.90;;;;;;5078518;28;20430;-79
2024/01/14 09:20:05;;;;;;;4.73;1.37;;;-2.30;99.90;;;;;;5080083;28;20475;-79
2024/01/14 09:22:32;;;;;;;4.37;2.93;;;-2.30;99.90;;;;;;5081064;28;20441;-79
2024/01/14 09:24:59;;;;;;;14.93;1.27;;;-2.40;99.90;;;;;;5081113;28;20440;-79
2024/01/14 09:27:28;;;;;;;3.40;1.87;;;-2.50;99.90;;;;;;5080908;28;20428;-79
2024/01/14 09:29:54;;;;;;;1.07;1.07;;;-2.50;99.90;;;;;;5080662;28;20469;-79
2024/01/14 09:32:21;;;;;;;13.87;1.93;;;-2.40;99.90;;;;;;5080935;28;20447;-79
2024/01/14 09:34:49;;;;;;;1.40;1.23;;;-2.40;99.90;;;;;;5080124;28;20445;-79
2024/01/14 09:37:16;;;;;;;0.50;0.50;;;-2.30;99.90;;;;;;5080600;28;20425;-79
2024/01/14 09:39:42;;;;;;;2.03;1.83;;;-2.30;99.90;;;;;;5079832;28;20469;-79
2024/01/14 09:42:20;;;;;;;4.27;2.33;;;-2.20;99.90;;;;;;5086138;28;20449;-79
2024/01/14 09:44:48;;;;;;;0.40;0.40;;;-2.20;99.90;;;;;;5083472;28;20487;-79
2024/01/14 09:47:16;;;;;;;8.60;2.03;;;-2.50;99.90;;;;;;5082578;28;20790;-79
2024/01/14 09:49:43;;;;;;;6.17;2.27;;;-2.50;99.90;;;;;;5081949;28;20805;-79
2024/01/14 09:52:13;;;;;;;12.30;1.40;;;-2.50;99.90;;;;;;5082209;28;20528;-79
2024/01/14 09:54:40;;;;;;;1.67;1.40;;;-2.40;99.90;;;;;;5080678;28;20483;-79
2024/01/14 09:57:12;;;;;;;3.00;1.50;;;-2.40;99.90;;;;;;5081792;28;20429;-79
2024/01/14 09:59:43;;;;;;;1.10;1.07;;;-2.30;99.90;;;;;;5080937;28;20453;-79
2024/01/14 10:02:11;;;;;;;4.03;1.70;;;-2.20;99.90;;;;;;5080368;28;20440;-79
2024/01/14 10:04:41;;;;;;;0.97;0.80;;;-2.10;99.90;;;;;;5080012;28;20445;-79
2024/01/14 10:07:08;;;;;;;7.83;1.97;;;-1.70;99.90;;;;;;5079825;28;20482;-79
2024/01/14 10:09:36;;;;;;;4.37;2.40;;;-1.60;99.90;;;;;;5080548;28;20441;-79
2024/01/14 10:12:03;;;;;;;1.07;1.07;;;-1.60;99.90;;;;;;5079617;28;20471;-79
2024/01/14 10:14:30;;;;;;;0.30;0.30;;;-1.70;99.90;;;;;;5079879;28;20538;-79
2024/01/14 10:16:57;;;;;;;6.93;0.90;;;-1.70;99.90;;;;;;5080657;28;20425;-79
2024/01/14 10:19:24;;;;;;;1.07;1.00;;;-1.70;99.90;;;;;;5079710;28;20492;-79
2024/01/14 10:21:53;;;;;;;2.13;1.70;;;-1.60;99.90;;;;;;5080149;28;20456;-79
2024/01/14 10:24:21;;;;;;;2.63;1.00;;;-1.30;99.90;;;;;;5078694;28;20444;-79
2024/01/14 10:26:53;;;;;;;2.00;1.90;;;-0.90;99.90;;;;;;5079162;28;20452;-79
2024/01/14 10:29:20;;;;;;;15.73;2.23;;;-0.80;99.90;;;;;;5078178;28;20802;-79
2024/01/14 10:31:47;;;;;;;3.90;2.13;;;-0.50;99.90;;;;;;5078728;28;20433;-79
2024/01/14 10:34:16;;;;;;;8.30;2.20;;;-0.40;99.90;;;;;;5078609;28;20484;-79
2024/01/14 10:36:44;;;;;;;2.57;1.80;;;-0.30;99.90;;;;;;5078931;28;20475;-79
2024/01/14 10:39:12;;;;;;;8.77;3.30;;;-0.30;99.90;;;;;;5078464;28;20472;-79
2024/01/14 10:41:39;;;;;;;9.90;2.00;;;-0.40;99.90;;;;;;5078397;28;20460;-79
2024/01/14 10:44:07;;;;;;;3.13;2.47;;;-0.30;99.90;;;;;;5079079;28;20417;-80
2024/01/14 10:46:35;;;;;;;6.07;1.40;;;-0.30;99.90;;;;;;5078946;28;20449;-79
2024/01/14 10:49:07;;;;;;;5.80;1.90;;;-0.30;99.90;;;;;;5077480;28;20473;-79
2024/01/14 10:51:40;;;;;;;2.00;0.90;;;-0.20;99.90;;;;;;5077623;28;20446;-81
2024/01/14 10:54:14;;;;;;;5.30;2.63;;;-0.20;99.90;;;;;;5077780;28;20469;-80
2024/01/14 10:56:43;;;;;;;2.40;1.83;;;-0.30;99.90;;;;;;5076860;28;20388;-80
2024/01/14 10:59:14;;;;;;;1.27;1.00;;;-0.30;99.90;;;;;;5076902;28;20465;-80
2024/01/14 11:01:48;;;;;;;6.23;2.57;;;-0.20;99.90;;;;;;5078240;28;20433;-81
2024/01/14 11:04:16;;;;;;;3.13;2.00;;;-0.20;99.90;;;;;;5078737;28;20898;-80
2024/01/14 11:06:45;;;;;;;4.83;2.80;;;-0.20;99.90;;;;;;5076958;28;20904;-80
2024/01/14 11:09:12;;;;;;;11.00;2.63;;;-0.30;99.90;;;;;;5077571;28;20461;-79
2024/01/14 11:11:43;;;;;;;0.90;0.90;;;-0.30;99.90;;;;;;5077303;28;20445;-79
2024/01/14 11:14:16;;;;;;;2.50;0.90;;;-0.40;99.90;;;;;;5077004;28;20480;-79
2024/01/14 11:16:52;;;;;;;9.30;2.80;;;-0.40;99.90;;;;;;5077451;28;20429;-79
2024/01/14 11:19:22;;;;;;;2.73;1.90;;;-0.40;99.90;;;;;;5076975;28;20471;-79
2024/01/14 11:21:57;;;;;;;2.83;1.43;;;-0.50;99.90;;;;;;5076484;28;20413;-79
2024/01/14 11:24:24;;;;;;;0.73;0.73;;;-0.50;99.90;;;;;;5076950;28;20425;-78
2024/01/14 11:26:54;;;;;;;6.43;1.80;;;-0.50;99.90;;;;;;5077305;28;20867;-78
2024/01/14 11:29:32;;;;;;;0.93;0.77;;;-0.50;99.90;;;;;;5076582;28;20911;-78
2024/01/14 11:32:05;;;;;;;1.77;1.67;;;-0.40;99.90;;;;;;5076162;28;20429;-78
2024/01/14 11:34:57;;;;;;;1.20;1.10;;;-0.30;99.90;;;;;;5076346;28;20457;-78
2024/01/14 11:37:44;;;;;;;2.40;1.30;;;-0.30;99.90;;;;;;5076768;28;20432;-78
2024/01/14 11:40:14;;;;;;;2.50;1.77;;;-0.30;99.90;;;;;;5076187;28;20468;-78
2024/01/14 11:42:45;;;;;;;2.13;1.03;;;-0.20;99.90;;;;;;5075605;28;20436;-78
2024/01/14 11:45:31;;;;;;;3.60;0.83;;;-0.20;99.90;;;;;;5077110;28;20425;-78
2024/01/14 11:47:58;;;;;;;2.57;0.80;;;-0.10;99.90;;;;;;5079745;28;20432;-78
2024/01/14 11:50:26;;;;;;;4.87;1.63;;;-0.10;99.90;;;;;;5085207;28;20447;-77
2024/01/14 11:52:55;;;;;;;4.43;1.87;;;0.00;99.90;;;;;;5077215;28;20441;-78
2024/01/14 11:55:25;;;;;;;5.30;2.10;;;0.00;99.90;;;;;;5074158;28;20440;-78
2024/01/14 11:57:53;;;;;;;2.00;1.33;;;0.00;99.90;;;;;;5073923;28;20800;-78
2024/01/14 12:00:24;;;;;;;3.10;2.03;;;0.10;99.90;;;;;;5074901;28;20498;-78
2024/01/14 12:03:04;;;;;;;1.40;1.33;;;0.10;99.90;;;;;;5074398;28;20468;-78
2024/01/14 12:05:30;;;;;;;6.73;1.37;;;0.00;99.90;;;;;;5074585;28;20436;-78
2024/01/14 12:07:57;;;;;;;14.88;3.85;;;0.00;99.90;;;;;;5073243;28;20464;-78
2024/01/14 12:10:24;;;;;;;8.47;1.53;;;-0.10;99.90;;;;;;5073929;28;20574;-78
2024/01/14 12:12:51;;;;;;;2.63;1.40;;;0.00;99.90;;;;;;5074247;28;20452;-78
2024/01/14 12:15:18;;;;;;;3.83;1.97;;;0.00;99.90;;;;;;5074408;28;20448;-78
2024/01/14 12:17:55;;;;;;;2.00;1.10;;;0.00;99.90;;;;;;5077478;28;20440;-78
2024/01/14 12:20:23;;;;;;;0.93;0.93;;;-0.10;99.90;;;;;;5078347;28;20514;-78
2024/01/14 12:22:56;;;;;;;1.60;1.13;;;-0.10;99.90;;;;;;5078146;28;20949;-78
2024/01/14 12:25:23;;;;;;;3.17;1.27;;;-0.20;99.90;;;;;;5079111;28;20467;-78
2024/01/14 12:27:50;;;;;;;3.13;2.00;;;-0.20;99.90;;;;;;5078927;28;20480;-78
2024/01/14 12:30:25;;;;;;;38.17;3.43;;;-0.20;99.90;;;;;;5079921;28;20452;-78
2024/01/14 12:32:51;;;;;;;2.40;1.77;;;-0.20;99.90;;;;;;5078987;28;20468;-78
2024/01/14 12:35:19;;;;;;;1.23;1.03;;;-0.20;99.90;;;;;;5078998;28;20511;-78
2024/01/14 12:37:46;;;;;;;0.47;0.47;;;-0.20;99.90;;;;;;5081288;28;20452;-78
2024/01/14 12:40:13;;;;;;;1.90;1.03;;;-0.30;99.90;;;;;;5079715;28;20500;-78
2024/01/14 12:42:40;;;;;;;11.30;3.23;;;-0.30;99.90;;;;;;5081146;28;20972;-78
2024/01/14 12:45:07;;;;;;;2.00;1.33;;;-0.30;99.90;;;;;;5078406;28;20468;-78
2024/01/14 12:47:34;;;;;;;2.10;1.80;;;-0.30;99.90;;;;;;5078844;28;20441;-78